sensor_id;sensor_type;location;lat;lon;timestamp;temperature;humidity
4376;DHT22;2202;50.866;12.750;2023-08-31T00:02:22;13.20;93.00
4376;DHT22;2202;50.866;12.750;2023-08-31T00:04:51;13.10;93.30
4376;DHT22;2202;50.866;12.750;2023-08-31T00:07:21;13.20;93.40
4376;DHT22;2202;50.866;12.750;2023-08-31T00:09:48;13.20;93.40
4376;DHT22;2202;50.866;12.750;2023-08-31T00:12:15;13.20;93.50
4376;DHT22;2202;50.866;12.750;2023-08-31T00:14:42;13.00;94.10
4376;DHT22;2202;50.866;12.750;2023-08-31T00:17:09;13.00;94.50
4376;DHT22;2202;50.866;12.750;2023-08-31T00:19:35;13.00;94.50
4376;DHT22;2202;50.866;12.750;2023-08-31T00:22:02;13.00;94.60
4376;DHT22;2202;50.866;12.750;2023-08-31T00:24:31;12.90;95.10
4376;DHT22;2202;50.866;12.750;2023-08-31T00:26:58;13.10;95.10
4376;DHT22;2202;50.866;12.750;2023-08-31T00:29:25;13.10;94.90
4376;DHT22;2202;50.866;12.750;2023-08-31T00:31:52;12.90;95.30
4376;DHT22;2202;50.866;12.750;2023-08-31T00:34:19;12.80;95.40
4376;DHT22;2202;50.866;12.750;2023-08-31T00:36:46;12.70;95.70
4376;DHT22;2202;50.866;12.750;2023-08-31T00:39:13;12.70;95.80
4376;DHT22;2202;50.866;12.750;2023-08-31T00:41:42;12.60;96.20
4376;DHT22;2202;50.866;12.750;2023-08-31T00:44:10;12.70;96.50
4376;DHT22;2202;50.866;12.750;2023-08-31T00:46:37;12.70;95.90
4376;DHT22;2202;50.866;12.750;2023-08-31T00:49:04;12.60;96.20
4376;DHT22;2202;50.866;12.750;2023-08-31T00:51:31;12.50;96.60
4376;DHT22;2202;50.866;12.750;2023-08-31T00:53:58;12.50;96.70
4376;DHT22;2202;50.866;12.750;2023-08-31T00:56:25;12.60;96.70
4376;DHT22;2202;50.866;12.750;2023-08-31T00:58:53;12.60;96.70
4376;DHT22;2202;50.866;12.750;2023-08-31T01:01:25;12.60;96.40
4376;DHT22;2202;50.866;12.750;2023-08-31T01:04:03;12.50;96.30
4376;DHT22;2202;50.866;12.750;2023-08-31T01:06:46;12.40;96.50
4376;DHT22;2202;50.866;12.750;2023-08-31T01:09:24;12.30;97.00
4376;DHT22;2202;50.866;12.750;2023-08-31T01:11:57;12.20;97.40
4376;DHT22;2202;50.866;12.750;2023-08-31T01:14:32;12.10;97.40
4376;DHT22;2202;50.866;12.750;2023-08-31T01:16:59;12.10;97.40
4376;DHT22;2202;50.866;12.750;2023-08-31T01:19:40;12.10;97.60
4376;DHT22;2202;50.866;12.750;2023-08-31T01:22:12;12.10;97.70
4376;DHT22;2202;50.866;12.750;2023-08-31T01:24:41;12.20;97.80
4376;DHT22;2202;50.866;12.750;2023-08-31T01:27:08;12.20;97.90
4376;DHT22;2202;50.866;12.750;2023-08-31T01:29:35;12.20;98.10
4376;DHT22;2202;50.866;12.750;2023-08-31T01:32:05;12.20;98.00
4376;DHT22;2202;50.866;12.750;2023-08-31T01:34:32;12.30;97.80
4376;DHT22;2202;50.866;12.750;2023-08-31T01:37:03;12.30;97.30
4376;DHT22;2202;50.866;12.750;2023-08-31T01:39:37;12.30;97.30
4376;DHT22;2202;50.866;12.750;2023-08-31T01:42:11;12.30;97.20
4376;DHT22;2202;50.866;12.750;2023-08-31T01:44:39;12.40;97.30
4376;DHT22;2202;50.866;12.750;2023-08-31T01:47:07;12.40;96.90
4376;DHT22;2202;50.866;12.750;2023-08-31T01:49:37;12.40;96.80
4376;DHT22;2202;50.866;12.750;2023-08-31T01:52:04;12.20;97.30
4376;DHT22;2202;50.866;12.750;2023-08-31T01:54:32;12.20;97.50
4376;DHT22;2202;50.866;12.750;2023-08-31T01:56:58;12.20;97.50
4376;DHT22;2202;50.866;12.750;2023-08-31T01:59:27;12.30;97.20
4376;DHT22;2202;50.866;12.750;2023-08-31T02:01:54;12.20;97.30
4376;DHT22;2202;50.866;12.750;2023-08-31T02:04:20;12.20;97.40
4376;DHT22;2202;50.866;12.750;2023-08-31T02:06:47;12.10;97.40
4376;DHT22;2202;50.866;12.750;2023-08-31T02:09:14;12.10;97.40
4376;DHT22;2202;50.866;12.750;2023-08-31T02:11:41;12.10;97.50
4376;DHT22;2202;50.866;12.750;2023-08-31T02:14:08;12.00;97.60
4376;DHT22;2202;50.866;12.750;2023-08-31T02:16:36;12.00;97.70
4376;DHT22;2202;50.866;12.750;2023-08-31T02:19:03;12.10;97.60
4376;DHT22;2202;50.866;12.750;2023-08-31T02:21:30;12.00;97.60
4376;DHT22;2202;50.866;12.750;2023-08-31T02:23:57;11.90;97.90
4376;DHT22;2202;50.866;12.750;2023-08-31T02:26:24;11.90;98.00
4376;DHT22;2202;50.866;12.750;2023-08-31T02:28:50;11.90;98.20
4376;DHT22;2202;50.866;12.750;2023-08-31T02:31:17;11.90;98.00
4376;DHT22;2202;50.866;12.750;2023-08-31T02:33:47;11.80;97.90
4376;DHT22;2202;50.866;12.750;2023-08-31T02:36:15;11.70;98.10
4376;DHT22;2202;50.866;12.750;2023-08-31T02:38:42;11.70;98.10
4376;DHT22;2202;50.866;12.750;2023-08-31T02:41:08;11.70;98.00
4376;DHT22;2202;50.866;12.750;2023-08-31T02:43:35;11.60;97.90
4376;DHT22;2202;50.866;12.750;2023-08-31T02:46:02;11.60;98.10
4376;DHT22;2202;50.866;12.750;2023-08-31T02:48:31;11.50;98.40
4376;DHT22;2202;50.866;12.750;2023-08-31T02:51:00;11.50;98.80
4376;DHT22;2202;50.866;12.750;2023-08-31T02:53:28;11.60;98.80
4376;DHT22;2202;50.866;12.750;2023-08-31T02:55:56;11.70;98.70
4376;DHT22;2202;50.866;12.750;2023-08-31T02:58:22;11.70;98.60
4376;DHT22;2202;50.866;12.750;2023-08-31T03:00:50;11.80;98.50
4376;DHT22;2202;50.866;12.750;2023-08-31T03:03:17;11.90;98.30
4376;DHT22;2202;50.866;12.750;2023-08-31T03:05:45;11.90;98.20
4376;DHT22;2202;50.866;12.750;2023-08-31T03:08:13;11.90;98.00
4376;DHT22;2202;50.866;12.750;2023-08-31T03:10:40;11.90;97.90
4376;DHT22;2202;50.866;12.750;2023-08-31T03:13:07;11.90;97.70
4376;DHT22;2202;50.866;12.750;2023-08-31T03:15:34;11.90;97.40
4376;DHT22;2202;50.866;12.750;2023-08-31T03:18:01;11.90;97.30
4376;DHT22;2202;50.866;12.750;2023-08-31T03:20:28;11.90;96.90
4376;DHT22;2202;50.866;12.750;2023-08-31T03:22:55;12.00;96.50
4376;DHT22;2202;50.866;12.750;2023-08-31T03:25:23;12.00;96.40
4376;DHT22;2202;50.866;12.750;2023-08-31T03:27:50;11.90;96.30
4376;DHT22;2202;50.866;12.750;2023-08-31T03:30:17;11.90;96.20
4376;DHT22;2202;50.866;12.750;2023-08-31T03:32:44;11.80;96.20
4376;DHT22;2202;50.866;12.750;2023-08-31T03:35:11;11.70;96.40
4376;DHT22;2202;50.866;12.750;2023-08-31T03:37:38;11.70;96.50
4376;DHT22;2202;50.866;12.750;2023-08-31T03:40:06;11.70;96.40
4376;DHT22;2202;50.866;12.750;2023-08-31T03:42:35;11.70;96.50
4376;DHT22;2202;50.866;12.750;2023-08-31T03:45:02;11.70;96.60
4376;DHT22;2202;50.866;12.750;2023-08-31T03:47:29;11.70;96.70
4376;DHT22;2202;50.866;12.750;2023-08-31T03:49:56;11.80;96.80
4376;DHT22;2202;50.866;12.750;2023-08-31T03:52:23;11.70;96.80
4376;DHT22;2202;50.866;12.750;2023-08-31T03:54:51;11.70;97.00
4376;DHT22;2202;50.866;12.750;2023-08-31T03:57:18;11.80;96.80
4376;DHT22;2202;50.866;12.750;2023-08-31T03:59:46;11.80;96.40
4376;DHT22;2202;50.866;12.750;2023-08-31T04:02:13;11.80;96.30
4376;DHT22;2202;50.866;12.750;2023-08-31T04:04:40;11.70;96.20
4376;DHT22;2202;50.866;12.750;2023-08-31T04:07:07;11.70;96.30
4376;DHT22;2202;50.866;12.750;2023-08-31T04:09:34;11.70;96.20
4376;DHT22;2202;50.866;12.750;2023-08-31T04:12:00;11.70;96.20
4376;DHT22;2202;50.866;12.750;2023-08-31T04:14:27;11.70;96.20
4376;DHT22;2202;50.866;12.750;2023-08-31T04:16:56;11.80;96.20
4376;DHT22;2202;50.866;12.750;2023-08-31T04:19:23;11.80;96.00
4376;DHT22;2202;50.866;12.750;2023-08-31T04:21:50;11.80;95.90
4376;DHT22;2202;50.866;12.750;2023-08-31T04:24:16;11.70;96.00
4376;DHT22;2202;50.866;12.750;2023-08-31T04:26:43;11.80;95.90
4376;DHT22;2202;50.866;12.750;2023-08-31T04:29:11;11.80;95.90
4376;DHT22;2202;50.866;12.750;2023-08-31T04:31:38;11.80;95.90
4376;DHT22;2202;50.866;12.750;2023-08-31T04:34:06;11.80;95.80
4376;DHT22;2202;50.866;12.750;2023-08-31T04:36:33;11.80;96.00
4376;DHT22;2202;50.866;12.750;2023-08-31T04:38:59;11.90;95.80
4376;DHT22;2202;50.866;12.750;2023-08-31T04:41:26;11.90;95.60
4376;DHT22;2202;50.866;12.750;2023-08-31T04:43:53;11.90;95.50
4376;DHT22;2202;50.866;12.750;2023-08-31T04:46:20;11.90;95.50
4376;DHT22;2202;50.866;12.750;2023-08-31T04:48:47;11.90;95.50
4376;DHT22;2202;50.866;12.750;2023-08-31T04:51:30;12.00;95.60
4376;DHT22;2202;50.866;12.750;2023-08-31T04:53:57;12.00;95.30
4376;DHT22;2202;50.866;12.750;2023-08-31T04:56:24;12.10;95.10
4376;DHT22;2202;50.866;12.750;2023-08-31T04:58:51;12.10;95.10
4376;DHT22;2202;50.866;12.750;2023-08-31T05:01:18;12.10;95.30
4376;DHT22;2202;50.866;12.750;2023-08-31T05:03:45;12.10;95.50
4376;DHT22;2202;50.866;12.750;2023-08-31T05:06:12;12.10;95.60
4376;DHT22;2202;50.866;12.750;2023-08-31T05:08:40;12.20;95.80
4376;DHT22;2202;50.866;12.750;2023-08-31T05:11:07;12.20;95.70
4376;DHT22;2202;50.866;12.750;2023-08-31T05:13:34;12.20;95.70
4376;DHT22;2202;50.866;12.750;2023-08-31T05:16:00;12.20;95.90
4376;DHT22;2202;50.866;12.750;2023-08-31T05:18:28;12.30;95.90
4376;DHT22;2202;50.866;12.750;2023-08-31T05:20:55;12.30;95.90
4376;DHT22;2202;50.866;12.750;2023-08-31T05:23:21;12.30;95.80
4376;DHT22;2202;50.866;12.750;2023-08-31T05:25:50;12.30;95.90
4376;DHT22;2202;50.866;12.750;2023-08-31T05:28:16;12.30;96.10
4376;DHT22;2202;50.866;12.750;2023-08-31T05:30:48;12.30;96.10
4376;DHT22;2202;50.866;12.750;2023-08-31T05:33:16;12.40;96.00
4376;DHT22;2202;50.866;12.750;2023-08-31T05:35:43;12.50;96.00
4376;DHT22;2202;50.866;12.750;2023-08-31T05:38:10;12.50;95.80
4376;DHT22;2202;50.866;12.750;2023-08-31T05:40:36;12.60;95.60
4376;DHT22;2202;50.866;12.750;2023-08-31T05:43:05;12.50;95.40
4376;DHT22;2202;50.866;12.750;2023-08-31T05:45:32;12.60;95.50
4376;DHT22;2202;50.866;12.750;2023-08-31T05:47:59;12.60;95.60
4376;DHT22;2202;50.866;12.750;2023-08-31T05:50:26;12.60;95.60
4376;DHT22;2202;50.866;12.750;2023-08-31T05:52:53;12.60;95.40
4376;DHT22;2202;50.866;12.750;2023-08-31T05:55:20;12.70;95.10
4376;DHT22;2202;50.866;12.750;2023-08-31T05:57:48;12.70;95.10
4376;DHT22;2202;50.866;12.750;2023-08-31T06:00:17;12.60;94.90
4376;DHT22;2202;50.866;12.750;2023-08-31T06:02:44;12.60;94.80
4376;DHT22;2202;50.866;12.750;2023-08-31T06:05:11;12.60;94.90
4376;DHT22;2202;50.866;12.750;2023-08-31T06:07:39;12.60;94.90
4376;DHT22;2202;50.866;12.750;2023-08-31T06:10:06;12.60;94.70
4376;DHT22;2202;50.866;12.750;2023-08-31T06:12:33;12.60;94.60
4376;DHT22;2202;50.866;12.750;2023-08-31T06:15:00;12.70;94.50
4376;DHT22;2202;50.866;12.750;2023-08-31T06:17:31;12.70;94.40
4376;DHT22;2202;50.866;12.750;2023-08-31T06:19:57;12.60;94.60
4376;DHT22;2202;50.866;12.750;2023-08-31T06:22:24;12.70;94.90
4376;DHT22;2202;50.866;12.750;2023-08-31T06:24:51;12.90;94.50
4376;DHT22;2202;50.866;12.750;2023-08-31T06:27:18;13.10;94.10
4376;DHT22;2202;50.866;12.750;2023-08-31T06:29:45;13.20;93.40
4376;DHT22;2202;50.866;12.750;2023-08-31T06:32:12;13.40;93.30
4376;DHT22;2202;50.866;12.750;2023-08-31T06:34:41;13.70;92.60
4376;DHT22;2202;50.866;12.750;2023-08-31T06:37:07;14.10;91.60
4376;DHT22;2202;50.866;12.750;2023-08-31T06:39:34;14.20;90.40
4376;DHT22;2202;50.866;12.750;2023-08-31T06:42:01;14.30;88.40
4376;DHT22;2202;50.866;12.750;2023-08-31T06:44:29;14.20;88.40
4376;DHT22;2202;50.866;12.750;2023-08-31T06:46:56;14.10;89.80
4376;DHT22;2202;50.866;12.750;2023-08-31T06:49:23;14.20;90.60
4376;DHT22;2202;50.866;12.750;2023-08-31T06:51:51;14.10;89.00
4376;DHT22;2202;50.866;12.750;2023-08-31T06:54:19;14.10;89.00
4376;DHT22;2202;50.866;12.750;2023-08-31T06:56:47;14.10;89.00
4376;DHT22;2202;50.866;12.750;2023-08-31T06:59:13;14.10;89.20
4376;DHT22;2202;50.866;12.750;2023-08-31T07:01:40;14.20;89.20
4376;DHT22;2202;50.866;12.750;2023-08-31T07:04:07;14.00;88.80
4376;DHT22;2202;50.866;12.750;2023-08-31T07:06:35;14.20;89.80
4376;DHT22;2202;50.866;12.750;2023-08-31T07:09:04;14.40;87.00
4376;DHT22;2202;50.866;12.750;2023-08-31T07:11:33;14.60;86.60
4376;DHT22;2202;50.866;12.750;2023-08-31T07:14:00;14.70;85.40
4376;DHT22;2202;50.866;12.750;2023-08-31T07:16:27;14.70;85.00
4376;DHT22;2202;50.866;12.750;2023-08-31T07:18:54;14.70;82.60
4376;DHT22;2202;50.866;12.750;2023-08-31T07:21:21;14.70;84.60
4376;DHT22;2202;50.866;12.750;2023-08-31T07:23:48;14.80;83.00
4376;DHT22;2202;50.866;12.750;2023-08-31T07:26:16;14.80;82.80
4376;DHT22;2202;50.866;12.750;2023-08-31T07:28:43;14.70;82.20
4376;DHT22;2202;50.866;12.750;2023-08-31T07:31:10;14.60;82.00
4376;DHT22;2202;50.866;12.750;2023-08-31T07:33:37;14.50;83.00
4376;DHT22;2202;50.866;12.750;2023-08-31T07:36:04;14.50;84.20
4376;DHT22;2202;50.866;12.750;2023-08-31T07:38:32;14.70;82.60
4376;DHT22;2202;50.866;12.750;2023-08-31T07:40:59;14.80;79.00
4376;DHT22;2202;50.866;12.750;2023-08-31T07:43:28;15.00;79.40
4376;DHT22;2202;50.866;12.750;2023-08-31T07:45:55;15.00;79.60
4376;DHT22;2202;50.866;12.750;2023-08-31T07:48:22;15.00;79.20
4376;DHT22;2202;50.866;12.750;2023-08-31T07:50:49;14.90;78.80
4376;DHT22;2202;50.866;12.750;2023-08-31T07:53:16;14.90;80.20
4376;DHT22;2202;50.866;12.750;2023-08-31T07:55:50;15.10;78.40
4376;DHT22;2202;50.866;12.750;2023-08-31T07:58:17;15.10;79.80
4376;DHT22;2202;50.866;12.750;2023-08-31T08:00:45;15.20;80.80
4376;DHT22;2202;50.866;12.750;2023-08-31T08:03:12;15.30;79.00
4376;DHT22;2202;50.866;12.750;2023-08-31T08:05:39;15.30;76.80
4376;DHT22;2202;50.866;12.750;2023-08-31T08:08:06;15.40;77.20
4376;DHT22;2202;50.866;12.750;2023-08-31T08:10:33;15.70;77.60
4376;DHT22;2202;50.866;12.750;2023-08-31T08:13:00;15.60;74.60
4376;DHT22;2202;50.866;12.750;2023-08-31T08:15:27;15.70;76.80
4376;DHT22;2202;50.866;12.750;2023-08-31T08:17:55;15.50;75.40
4376;DHT22;2202;50.866;12.750;2023-08-31T08:20:22;15.30;73.20
4376;DHT22;2202;50.866;12.750;2023-08-31T08:22:49;15.10;74.20
4376;DHT22;2202;50.866;12.750;2023-08-31T08:25:18;15.40;72.20
4376;DHT22;2202;50.866;12.750;2023-08-31T08:27:45;15.30;73.20
4376;DHT22;2202;50.866;12.750;2023-08-31T08:30:12;15.40;73.60
4376;DHT22;2202;50.866;12.750;2023-08-31T08:32:39;15.70;72.20
4376;DHT22;2202;50.866;12.750;2023-08-31T08:35:07;16.10;71.80
4376;DHT22;2202;50.866;12.750;2023-08-31T08:37:34;16.30;66.40
4376;DHT22;2202;50.866;12.750;2023-08-31T08:40:02;16.20;67.00
4376;DHT22;2202;50.866;12.750;2023-08-31T08:42:30;16.10;67.60
4376;DHT22;2202;50.866;12.750;2023-08-31T08:44:57;16.10;65.00
4376;DHT22;2202;50.866;12.750;2023-08-31T08:47:25;16.10;66.40
4376;DHT22;2202;50.866;12.750;2023-08-31T08:49:53;16.30;67.80
4376;DHT22;2202;50.866;12.750;2023-08-31T08:52:22;16.60;68.40
4376;DHT22;2202;50.866;12.750;2023-08-31T08:54:49;16.80;64.40
4376;DHT22;2202;50.866;12.750;2023-08-31T08:57:16;16.50;68.00
4376;DHT22;2202;50.866;12.750;2023-08-31T08:59:43;16.60;66.40
4376;DHT22;2202;50.866;12.750;2023-08-31T09:02:11;16.60;66.60
4376;DHT22;2202;50.866;12.750;2023-08-31T09:04:38;16.60;65.60
4376;DHT22;2202;50.866;12.750;2023-08-31T09:07:05;16.40;64.60
4376;DHT22;2202;50.866;12.750;2023-08-31T09:09:48;16.50;63.20
4376;DHT22;2202;50.866;12.750;2023-08-31T09:12:15;16.60;64.40
4376;DHT22;2202;50.866;12.750;2023-08-31T09:14:42;16.50;62.40
4376;DHT22;2202;50.866;12.750;2023-08-31T09:17:09;16.10;66.20
4376;DHT22;2202;50.866;12.750;2023-08-31T09:19:36;15.90;68.80
4376;DHT22;2202;50.866;12.750;2023-08-31T09:22:03;16.30;65.80
4376;DHT22;2202;50.866;12.750;2023-08-31T09:24:41;16.50;65.00
4376;DHT22;2202;50.866;12.750;2023-08-31T09:27:10;16.70;63.40
4376;DHT22;2202;50.866;12.750;2023-08-31T09:29:38;16.70;63.60
4376;DHT22;2202;50.866;12.750;2023-08-31T09:32:05;16.50;65.80
4376;DHT22;2202;50.866;12.750;2023-08-31T09:34:33;16.40;67.40
4376;DHT22;2202;50.866;12.750;2023-08-31T09:37:04;16.60;66.60
4376;DHT22;2202;50.866;12.750;2023-08-31T09:39:35;16.60;67.40
4376;DHT22;2202;50.866;12.750;2023-08-31T09:42:04;16.20;66.20
4376;DHT22;2202;50.866;12.750;2023-08-31T09:44:31;16.10;68.20
4376;DHT22;2202;50.866;12.750;2023-08-31T09:46:58;16.00;68.40
4376;DHT22;2202;50.866;12.750;2023-08-31T09:49:26;15.90;69.20
4376;DHT22;2202;50.866;12.750;2023-08-31T09:51:53;15.90;68.00
4376;DHT22;2202;50.866;12.750;2023-08-31T09:54:21;15.60;68.80
4376;DHT22;2202;50.866;12.750;2023-08-31T09:56:49;15.60;71.00
4376;DHT22;2202;50.866;12.750;2023-08-31T09:59:17;15.90;70.40
4376;DHT22;2202;50.866;12.750;2023-08-31T10:01:46;16.00;67.00
4376;DHT22;2202;50.866;12.750;2023-08-31T10:04:13;16.00;65.20
4376;DHT22;2202;50.866;12.750;2023-08-31T10:06:40;16.00;66.40
4376;DHT22;2202;50.866;12.750;2023-08-31T10:09:08;16.00;66.40
4376;DHT22;2202;50.866;12.750;2023-08-31T10:11:38;16.00;66.40
4376;DHT22;2202;50.866;12.750;2023-08-31T10:14:05;15.90;66.80
4376;DHT22;2202;50.866;12.750;2023-08-31T10:16:34;15.90;68.20
4376;DHT22;2202;50.866;12.750;2023-08-31T10:19:02;15.80;68.00
4376;DHT22;2202;50.866;12.750;2023-08-31T10:21:29;15.70;69.80
4376;DHT22;2202;50.866;12.750;2023-08-31T10:23:56;15.80;73.40
4376;DHT22;2202;50.866;12.750;2023-08-31T10:26:24;15.50;73.80
4376;DHT22;2202;50.866;12.750;2023-08-31T10:28:51;15.20;73.80
4376;DHT22;2202;50.866;12.750;2023-08-31T10:31:19;14.90;74.80
4376;DHT22;2202;50.866;12.750;2023-08-31T10:33:55;14.90;76.40
4376;DHT22;2202;50.866;12.750;2023-08-31T10:36:35;15.20;79.20
4376;DHT22;2202;50.866;12.750;2023-08-31T10:39:05;15.60;79.00
4376;DHT22;2202;50.866;12.750;2023-08-31T10:41:34;16.10;78.00
4376;DHT22;2202;50.866;12.750;2023-08-31T10:44:01;16.40;73.60
4376;DHT22;2202;50.866;12.750;2023-08-31T10:46:29;16.80;74.00
4376;DHT22;2202;50.866;12.750;2023-08-31T10:48:59;17.10;70.20
4376;DHT22;2202;50.866;12.750;2023-08-31T10:51:29;17.40;65.80
4376;DHT22;2202;50.866;12.750;2023-08-31T10:54:09;17.80;67.40
4376;DHT22;2202;50.866;12.750;2023-08-31T10:57:02;17.90;63.40
4376;DHT22;2202;50.866;12.750;2023-08-31T10:59:51;17.90;65.20
4376;DHT22;2202;50.866;12.750;2023-08-31T11:02:33;17.70;65.00
4376;DHT22;2202;50.866;12.750;2023-08-31T11:05:06;17.80;65.00
4376;DHT22;2202;50.866;12.750;2023-08-31T11:07:34;17.60;64.00
4376;DHT22;2202;50.866;12.750;2023-08-31T11:10:15;17.70;68.60
4376;DHT22;2202;50.866;12.750;2023-08-31T11:12:44;18.00;65.00
4376;DHT22;2202;50.866;12.750;2023-08-31T11:15:12;18.30;65.00
4376;DHT22;2202;50.866;12.750;2023-08-31T11:17:40;18.40;61.20
4376;DHT22;2202;50.866;12.750;2023-08-31T11:20:12;18.00;59.20
4376;DHT22;2202;50.866;12.750;2023-08-31T11:22:41;18.00;63.40
4376;DHT22;2202;50.866;12.750;2023-08-31T11:25:09;18.10;60.10
4376;DHT22;2202;50.866;12.750;2023-08-31T11:27:36;17.70;59.90
4376;DHT22;2202;50.866;12.750;2023-08-31T11:30:09;17.90;58.90
4376;DHT22;2202;50.866;12.750;2023-08-31T11:32:42;18.20;53.20
4376;DHT22;2202;50.866;12.750;2023-08-31T11:35:11;18.00;53.90
4376;DHT22;2202;50.866;12.750;2023-08-31T11:37:38;18.00;53.70
4376;DHT22;2202;50.866;12.750;2023-08-31T11:40:06;18.10;57.10
4376;DHT22;2202;50.866;12.750;2023-08-31T11:42:33;18.00;57.80
4376;DHT22;2202;50.866;12.750;2023-08-31T11:45:00;17.80;61.00
4376;DHT22;2202;50.866;12.750;2023-08-31T11:47:30;17.50;64.60
4376;DHT22;2202;50.866;12.750;2023-08-31T11:49:58;17.50;64.80
4376;DHT22;2202;50.866;12.750;2023-08-31T11:52:26;17.50;63.80
4376;DHT22;2202;50.866;12.750;2023-08-31T11:54:53;17.50;64.80
4376;DHT22;2202;50.866;12.750;2023-08-31T11:57:25;17.80;65.40
4376;DHT22;2202;50.866;12.750;2023-08-31T11:59:52;18.00;61.60
4376;DHT22;2202;50.866;12.750;2023-08-31T12:02:19;18.00;61.00
4376;DHT22;2202;50.866;12.750;2023-08-31T12:04:46;17.90;64.20
4376;DHT22;2202;50.866;12.750;2023-08-31T12:07:16;17.90;61.20
4376;DHT22;2202;50.866;12.750;2023-08-31T12:09:45;18.10;57.80
4376;DHT22;2202;50.866;12.750;2023-08-31T12:12:14;18.20;55.70
4376;DHT22;2202;50.866;12.750;2023-08-31T12:14:41;18.30;55.10
4376;DHT22;2202;50.866;12.750;2023-08-31T12:17:08;18.50;56.00
4376;DHT22;2202;50.866;12.750;2023-08-31T12:19:37;18.50;56.20
4376;DHT22;2202;50.866;12.750;2023-08-31T12:22:05;18.60;57.40
4376;DHT22;2202;50.866;12.750;2023-08-31T12:27:04;18.60;54.80
4376;DHT22;2202;50.866;12.750;2023-08-31T12:29:31;18.90;52.80
4376;DHT22;2202;50.866;12.750;2023-08-31T12:31:58;18.90;51.10
4376;DHT22;2202;50.866;12.750;2023-08-31T12:34:24;18.90;51.40
4376;DHT22;2202;50.866;12.750;2023-08-31T12:36:51;18.80;51.60
4376;DHT22;2202;50.866;12.750;2023-08-31T12:39:18;18.60;51.40
4376;DHT22;2202;50.866;12.750;2023-08-31T12:41:45;18.40;54.40
4376;DHT22;2202;50.866;12.750;2023-08-31T12:44:13;18.10;53.90
4376;DHT22;2202;50.866;12.750;2023-08-31T12:46:40;17.90;56.20
4376;DHT22;2202;50.866;12.750;2023-08-31T12:49:07;17.90;54.60
4376;DHT22;2202;50.866;12.750;2023-08-31T12:51:34;17.80;54.80
4376;DHT22;2202;50.866;12.750;2023-08-31T12:54:01;17.70;54.60
4376;DHT22;2202;50.866;12.750;2023-08-31T12:56:29;17.70;56.60
4376;DHT22;2202;50.866;12.750;2023-08-31T12:58:56;17.60;57.80
4376;DHT22;2202;50.866;12.750;2023-08-31T13:01:24;17.60;57.30
4376;DHT22;2202;50.866;12.750;2023-08-31T13:03:51;17.50;57.60
4376;DHT22;2202;50.866;12.750;2023-08-31T13:06:19;17.40;58.00
4376;DHT22;2202;50.866;12.750;2023-08-31T13:08:46;17.30;58.00
4376;DHT22;2202;50.866;12.750;2023-08-31T13:11:13;17.10;62.40
4376;DHT22;2202;50.866;12.750;2023-08-31T13:13:40;17.00;59.90
4376;DHT22;2202;50.866;12.750;2023-08-31T13:16:07;17.40;61.00
4376;DHT22;2202;50.866;12.750;2023-08-31T13:18:35;17.70;56.90
4376;DHT22;2202;50.866;12.750;2023-08-31T13:21:02;17.40;56.40
4376;DHT22;2202;50.866;12.750;2023-08-31T13:23:29;17.10;57.10
4376;DHT22;2202;50.866;12.750;2023-08-31T13:25:56;17.10;59.80
4376;DHT22;2202;50.866;12.750;2023-08-31T13:28:23;17.00;59.40
4376;DHT22;2202;50.866;12.750;2023-08-31T13:30:50;17.10;59.20
4376;DHT22;2202;50.866;12.750;2023-08-31T13:33:17;17.10;60.20
4376;DHT22;2202;50.866;12.750;2023-08-31T13:35:47;16.90;59.00
4376;DHT22;2202;50.866;12.750;2023-08-31T13:38:13;17.00;60.80
4376;DHT22;2202;50.866;12.750;2023-08-31T13:40:40;17.00;59.20
4376;DHT22;2202;50.866;12.750;2023-08-31T13:43:08;17.10;59.60
4376;DHT22;2202;50.866;12.750;2023-08-31T13:45:34;17.20;59.40
4376;DHT22;2202;50.866;12.750;2023-08-31T13:48:01;17.70;59.40
4376;DHT22;2202;50.866;12.750;2023-08-31T13:50:30;18.10;56.00
4376;DHT22;2202;50.866;12.750;2023-08-31T13:52:58;18.20;55.10
4376;DHT22;2202;50.866;12.750;2023-08-31T13:55:25;18.00;54.60
4376;DHT22;2202;50.866;12.750;2023-08-31T13:57:52;17.70;56.00
4376;DHT22;2202;50.866;12.750;2023-08-31T14:00:19;17.70;55.50
4376;DHT22;2202;50.866;12.750;2023-08-31T14:02:46;17.80;55.50
4376;DHT22;2202;50.866;12.750;2023-08-31T14:05:13;17.80;53.00
4376;DHT22;2202;50.866;12.750;2023-08-31T14:07:40;17.80;50.70
4376;DHT22;2202;50.866;12.750;2023-08-31T14:10:09;18.20;48.80
4376;DHT22;2202;50.866;12.750;2023-08-31T14:12:36;18.30;47.70
4376;DHT22;2202;50.866;12.750;2023-08-31T14:15:04;18.30;48.80
4376;DHT22;2202;50.866;12.750;2023-08-31T14:17:31;18.40;48.90
4376;DHT22;2202;50.866;12.750;2023-08-31T14:19:59;18.50;46.60
4376;DHT22;2202;50.866;12.750;2023-08-31T14:22:31;18.30;47.70
4376;DHT22;2202;50.866;12.750;2023-08-31T14:24:58;18.20;48.20
4376;DHT22;2202;50.866;12.750;2023-08-31T14:27:26;18.30;49.50
4376;DHT22;2202;50.866;12.750;2023-08-31T14:29:56;18.60;51.20
4376;DHT22;2202;50.866;12.750;2023-08-31T14:32:22;19.00;48.00
4376;DHT22;2202;50.866;12.750;2023-08-31T14:34:49;19.10;46.30
4376;DHT22;2202;50.866;12.750;2023-08-31T14:37:16;19.10;45.60
4376;DHT22;2202;50.866;12.750;2023-08-31T14:39:43;19.10;43.60
4376;DHT22;2202;50.866;12.750;2023-08-31T14:42:10;18.70;45.90
4376;DHT22;2202;50.866;12.750;2023-08-31T14:44:38;18.70;48.20
4376;DHT22;2202;50.866;12.750;2023-08-31T14:47:05;18.60;48.90
4376;DHT22;2202;50.866;12.750;2023-08-31T14:49:32;18.60;45.70
4376;DHT22;2202;50.866;12.750;2023-08-31T14:51:59;18.20;46.80
4376;DHT22;2202;50.866;12.750;2023-08-31T14:54:30;17.90;48.60
4376;DHT22;2202;50.866;12.750;2023-08-31T14:56:57;17.80;49.50
4376;DHT22;2202;50.866;12.750;2023-08-31T14:59:24;17.80;50.70
4376;DHT22;2202;50.866;12.750;2023-08-31T15:01:52;17.70;50.50
4376;DHT22;2202;50.866;12.750;2023-08-31T15:04:19;17.70;51.20
4376;DHT22;2202;50.866;12.750;2023-08-31T15:06:46;17.70;51.60
4376;DHT22;2202;50.866;12.750;2023-08-31T15:09:13;17.40;51.60
4376;DHT22;2202;50.866;12.750;2023-08-31T15:11:40;17.30;54.10
4376;DHT22;2202;50.866;12.750;2023-08-31T15:14:10;17.20;56.40
4376;DHT22;2202;50.866;12.750;2023-08-31T15:16:37;17.00;58.90
4376;DHT22;2202;50.866;12.750;2023-08-31T15:19:05;16.80;61.20
4376;DHT22;2202;50.866;12.750;2023-08-31T15:21:32;16.70;62.60
4376;DHT22;2202;50.866;12.750;2023-08-31T15:23:59;16.60;62.00
4376;DHT22;2202;50.866;12.750;2023-08-31T15:26:26;16.70;62.40
4376;DHT22;2202;50.866;12.750;2023-08-31T15:28:53;16.70;60.80
4376;DHT22;2202;50.866;12.750;2023-08-31T15:31:19;17.00;59.20
4376;DHT22;2202;50.866;12.750;2023-08-31T15:33:46;17.20;58.30
4376;DHT22;2202;50.866;12.750;2023-08-31T15:36:14;17.40;56.90
4376;DHT22;2202;50.866;12.750;2023-08-31T15:38:42;17.50;55.50
4376;DHT22;2202;50.866;12.750;2023-08-31T15:41:09;17.40;53.40
4376;DHT22;2202;50.866;12.750;2023-08-31T15:43:36;17.30;53.90
4376;DHT22;2202;50.866;12.750;2023-08-31T15:46:04;17.20;53.50
4376;DHT22;2202;50.866;12.750;2023-08-31T15:48:31;17.40;53.50
4376;DHT22;2202;50.866;12.750;2023-08-31T15:50:58;17.50;53.00
4376;DHT22;2202;50.866;12.750;2023-08-31T15:53:27;17.30;53.70